This is the latest recevied weather packets stored in our database for station/object DG6HD-13. If no packets are shown the sender has not sent any weather packets the latest 10 day(s).
| Time | Temp. | Humidity | Pressure | Rain* | Wind** | Luminosity | Snow |
|---|---|---|---|---|---|---|---|
| 1777705743 | 13.33° C | 52% | 1021.5 hPa | - | - | - | - |
| 1777704842 | 12.78° C | 53% | 1021.7 hPa | - | - | - | - |
| 1777703941 | 11.11° C | 54% | 1021.8 hPa | - | - | - | - |
| 1777703040 | 10.56° C | 54% | 1021.8 hPa | - | - | - | - |
| 1777702139 | 10° C | 54% | 1021.9 hPa | - | - | - | - |
| 1777701239 | 8.89° C | 51% | 1021.9 hPa | - | - | - | - |
| 1777700338 | 8.33° C | 52% | 1022 hPa | - | - | - | - |
| 1777699437 | 8.33° C | 52% | 1022 hPa | - | - | - | - |
| 1777698536 | 8.33° C | 52% | 1022.1 hPa | - | - | - | - |
| 1777697635 | 7.78° C | 51% | 1022.2 hPa | - | - | - | - |
| 1777696734 | 7.78° C | 52% | 1022.3 hPa | - | - | - | - |
| 1777695834 | 7.78° C | 51% | 1022.3 hPa | - | - | - | - |
| 1777694933 | 7.78° C | 51% | 1022.5 hPa | - | - | - | - |
| 1777694032 | 8.33° C | 51% | 1022.6 hPa | - | - | - | - |
| 1777693131 | 8.33° C | 51% | 1022.6 hPa | - | - | - | - |
| 1777692230 | 8.33° C | 50% | 1022.8 hPa | - | - | - | - |
| 1777691329 | 8.33° C | 50% | 1022.9 hPa | - | - | - | - |
| 1777690428 | 8.89° C | 50% | 1023 hPa | - | - | - | - |
| 1777689528 | 8.89° C | 50% | 1023 hPa | - | - | - | - |
| 1777688627 | 8.89° C | 50% | 1023.2 hPa | - | - | - | - |
| 1777687726 | 9.44° C | 49% | 1023.3 hPa | - | - | - | - |
| 1777670610 | 13.89° C | 45% | 1025.1 hPa | - | - | - | - |
| 1777669709 | 13.89° C | 44% | 1025.2 hPa | - | - | - | - |
| 1777667907 | 14.44° C | 43% | 1025.4 hPa | - | - | - | - |
| 1777666105 | 15.56° C | 43% | 1025.4 hPa | - | - | - | - |
* Rain since midnight (hover to see other rain measurements)
** Current wind speed in m/s (hover to see current wind gust speed)